createdAt,value
2017-11-18T00:00:52.363Z,12.73
2017-11-18T00:01:58.600Z,15.00
2017-11-18T00:03:04.708Z,11.88
2017-11-18T00:04:10.784Z,11.18
2017-11-18T00:05:16.698Z,12.27
2017-11-18T00:06:22.853Z,14.20
2017-11-18T00:07:28.933Z,12.50
2017-11-18T00:08:34.992Z,12.40
2017-11-18T00:09:41.062Z,10.55
2017-11-18T00:10:47.170Z,10.32
2017-11-18T00:11:58.216Z,14.63
2017-11-18T00:13:04.326Z,9.68
2017-11-18T00:14:10.435Z,11.40
2017-11-18T00:15:16.589Z,12.20
2017-11-18T00:16:23.461Z,11.75
2017-11-18T00:17:29.555Z,15.75
2017-11-18T00:18:35.666Z,10.73
2017-11-18T00:19:41.754Z,12.55
2017-11-18T00:20:47.906Z,14.15
2017-11-18T00:21:53.998Z,10.98
2017-11-18T00:23:02.227Z,12.07
2017-11-18T00:24:08.313Z,9.98
2017-11-18T00:25:14.380Z,10.50
2017-11-18T00:26:20.483Z,12.98
2017-11-18T00:27:26.583Z,9.43
2017-11-18T00:28:32.688Z,13.13
2017-11-18T00:29:38.800Z,12.68
2017-11-18T00:30:45.549Z,10.35
2017-11-18T00:31:52.161Z,10.02
2017-11-18T00:32:58.274Z,12.15
2017-11-18T00:34:04.439Z,10.38
2017-11-18T00:35:10.561Z,12.50
2017-11-18T00:36:16.693Z,10.85
2017-11-18T00:37:22.800Z,10.35
2017-11-18T00:38:28.568Z,16.67
2017-11-18T00:39:34.623Z,9.13
2017-11-18T00:40:40.709Z,11.57
2017-11-18T00:41:47.128Z,11.25
2017-11-18T00:42:53.194Z,9.77
2017-11-18T00:43:59.255Z,10.65
2017-11-18T00:45:05.365Z,14.30
2017-11-18T00:46:12.334Z,10.95
2017-11-18T00:47:18.480Z,12.55
2017-11-18T00:48:24.638Z,10.52
2017-11-18T00:49:30.818Z,12.85
2017-11-18T00:50:37.020Z,10.43
2017-11-18T00:51:43.071Z,13.65
2017-11-18T00:52:49.167Z,9.20
2017-11-18T00:53:55.369Z,12.18
2017-11-18T00:55:00.801Z,12.23
2017-11-18T00:56:06.975Z,10.43
2017-11-18T00:57:13.066Z,13.18
2017-11-18T00:58:19.179Z,9.75
2017-11-18T00:59:25.567Z,8.07
2017-11-18T01:00:31.679Z,13.98
2017-11-18T01:01:37.585Z,10.40
2017-11-18T01:02:43.689Z,10.75
2017-11-18T01:03:49.770Z,10.88
2017-11-18T01:04:55.866Z,9.82
2017-11-18T01:06:01.952Z,13.05
2017-11-18T01:07:09.933Z,8.88
2017-11-18T01:08:16.820Z,8.45
2017-11-18T01:09:22.925Z,8.52
2017-11-18T01:10:29.027Z,11.55
2017-11-18T01:11:35.189Z,10.35
2017-11-18T01:12:41.037Z,12.65
2017-11-18T01:13:53.248Z,8.65
2017-11-18T01:14:59.332Z,8.73
2017-11-18T01:16:05.847Z,12.23
2017-11-18T01:17:11.925Z,13.02
2017-11-18T01:18:17.992Z,10.90
2017-11-18T01:19:24.095Z,11.20
2017-11-18T01:20:30.179Z,9.38
2017-11-18T01:21:41.174Z,9.20
2017-11-18T01:22:47.297Z,8.48
2017-11-18T01:23:53.381Z,11.50
2017-11-18T01:24:59.262Z,11.10
2017-11-18T01:26:05.379Z,9.35
2017-11-18T01:27:11.505Z,10.07
2017-11-18T01:28:17.649Z,9.48
2017-11-18T01:29:26.618Z,9.10
2017-11-18T01:30:32.709Z,11.55
2017-11-18T01:31:45.031Z,11.55
2017-11-18T01:32:51.228Z,8.85
2017-11-18T01:33:57.314Z,9.80
2017-11-18T01:35:03.083Z,9.00
2017-11-18T01:36:09.184Z,8.80
2017-11-18T01:37:15.308Z,9.27
2017-11-18T01:38:21.405Z,12.20
2017-11-18T01:39:27.505Z,10.82
2017-11-18T01:40:34.215Z,10.50
2017-11-18T01:41:40.339Z,11.63
2017-11-18T01:42:46.436Z,9.32
2017-11-18T01:43:52.519Z,10.00
2017-11-18T01:44:58.279Z,9.68
2017-11-18T01:46:04.410Z,15.10
2017-11-18T01:47:10.538Z,9.35
2017-11-18T01:48:16.675Z,9.98
2017-11-18T01:49:22.797Z,8.48
2017-11-18T01:50:28.578Z,10.52
2017-11-18T01:51:34.833Z,10.05
2017-11-18T01:52:40.996Z,10.73
2017-11-18T01:53:46.726Z,11.57
2017-11-18T01:54:52.801Z,8.30
2017-11-18T01:55:58.877Z,9.35
2017-11-18T01:57:05.311Z,8.02
2017-11-18T01:58:17.558Z,8.93
2017-11-18T01:59:23.612Z,9.77
2017-11-18T02:00:29.476Z,10.45
2017-11-18T02:01:34.302Z,10.10
2017-11-18T02:02:44.988Z,10.20
2017-11-18T02:03:51.049Z,9.88
2017-11-18T02:04:56.928Z,9.40
2017-11-18T02:06:02.368Z,12.68
2017-11-18T02:07:08.470Z,10.57
2017-11-18T02:08:14.547Z,10.73
2017-11-18T02:09:20.636Z,12.15
2017-11-18T02:10:26.817Z,10.27
2017-11-18T02:11:32.927Z,10.25
2017-11-18T02:12:38.710Z,8.95
2017-11-18T02:13:44.838Z,9.02
2017-11-18T02:14:50.916Z,10.13
2017-11-18T02:15:57.036Z,10.07
2017-11-18T02:17:03.086Z,11.15
2017-11-18T02:18:09.544Z,11.82
2017-11-18T02:19:15.293Z,12.70
2017-11-18T02:20:20.509Z,11.70
2017-11-18T02:21:25.912Z,11.40
2017-11-18T02:22:31.274Z,9.50
2017-11-18T02:23:37.087Z,9.90
2017-11-18T02:24:42.489Z,10.73
2017-11-18T02:25:47.672Z,7.18
2017-11-18T02:26:53.208Z,8.98
2017-11-18T02:27:58.641Z,13.57
2017-11-18T02:29:04.039Z,10.63
2017-11-18T02:30:09.200Z,10.77
2017-11-18T02:31:14.645Z,11.15
2017-11-18T02:32:20.042Z,13.18
2017-11-18T02:33:25.478Z,12.02
2017-11-18T02:34:30.866Z,12.63
2017-11-18T02:35:36.252Z,8.93
2017-11-18T02:36:41.803Z,12.57
2017-11-18T02:37:47.364Z,11.85
2017-11-18T02:38:52.845Z,13.62
2017-11-18T02:40:01.198Z,10.50
2017-11-18T02:41:06.415Z,12.93
2017-11-18T02:42:11.885Z,17.83
2017-11-18T02:43:17.095Z,11.07
2017-11-18T02:44:24.347Z,12.70
2017-11-18T02:45:29.751Z,12.48
2017-11-18T02:46:35.178Z,18.48
2017-11-18T02:47:40.752Z,13.10
2017-11-18T02:48:45.961Z,13.55
2017-11-18T02:49:51.660Z,13.93
2017-11-18T02:50:57.031Z,14.93
2017-11-18T02:52:02.411Z,16.23
2017-11-18T02:53:07.615Z,13.73
2017-11-18T02:54:14.092Z,17.35
2017-11-18T02:55:19.839Z,16.33
2017-11-18T02:56:25.636Z,14.10
2017-11-18T02:57:31.497Z,11.80
2017-11-18T02:58:36.712Z,12.63
2017-11-18T02:59:42.099Z,14.20
2017-11-18T03:00:48.207Z,15.10
2017-11-18T03:01:54.285Z,12.57
2017-11-18T03:03:00.436Z,15.15
2017-11-18T03:04:06.595Z,15.48
2017-11-18T03:05:12.656Z,15.50
2017-11-18T03:06:18.565Z,18.58
2017-11-18T03:07:24.484Z,16.60
2017-11-18T03:08:30.248Z,14.75
2017-11-18T03:09:36.374Z,17.20
2017-11-18T03:10:42.497Z,20.52
2017-11-18T03:11:51.394Z,15.60
2017-11-18T03:12:57.200Z,13.50
2017-11-18T03:14:03.676Z,15.32
2017-11-18T03:15:09.442Z,15.80
2017-11-18T03:16:15.570Z,18.62
2017-11-18T03:17:21.699Z,14.73
2017-11-18T03:18:28.738Z,17.00
2017-11-18T03:19:34.819Z,14.63
2017-11-18T03:20:41.022Z,18.50
2017-11-18T03:21:46.741Z,17.55
2017-11-18T03:22:52.830Z,13.30
2017-11-18T03:23:58.565Z,15.13
2017-11-18T03:25:04.031Z,13.60
2017-11-18T03:26:10.161Z,14.20
2017-11-18T03:27:15.571Z,18.58
2017-11-18T03:28:21.680Z,15.43
2017-11-18T03:29:27.778Z,17.02
2017-11-18T03:30:33.916Z,16.75
2017-11-18T03:31:39.685Z,18.25
2017-11-18T03:32:45.793Z,14.98
2017-11-18T03:33:52.074Z,17.25
2017-11-18T03:34:58.177Z,16.35
2017-11-18T03:36:08.629Z,15.23
2017-11-18T03:37:14.556Z,15.88
2017-11-18T03:38:20.473Z,18.80
2017-11-18T03:39:26.924Z,14.60
2017-11-18T03:40:33.109Z,17.08
2017-11-18T03:41:39.317Z,16.45
2017-11-18T03:42:45.404Z,13.95
2017-11-18T03:43:55.080Z,18.85
2017-11-18T03:45:01.152Z,21.00
2017-11-18T03:46:06.932Z,14.57
2017-11-18T03:47:12.362Z,16.17
2017-11-18T03:48:18.443Z,15.68
2017-11-18T03:49:24.587Z,15.50
2017-11-18T03:50:29.995Z,18.83
2017-11-18T03:51:36.144Z,15.60
2017-11-18T03:52:42.578Z,17.05
2017-11-18T03:53:48.727Z,18.08
2017-11-18T03:54:54.825Z,16.65
2017-11-18T03:56:00.967Z,17.40
2017-11-18T03:57:07.045Z,20.25
2017-11-18T03:58:13.618Z,19.70
2017-11-18T03:59:23.643Z,20.02
2017-11-18T04:00:29.031Z,19.83
2017-11-18T04:01:34.267Z,19.95
2017-11-18T04:02:40.384Z,20.37
2017-11-18T04:03:46.527Z,19.35
2017-11-18T04:04:52.609Z,26.12
2017-11-18T04:05:59.040Z,19.90
2017-11-18T04:07:05.160Z,21.37
2017-11-18T04:08:11.058Z,21.65
2017-11-18T04:09:17.120Z,19.45
2017-11-18T04:10:24.143Z,21.58
2017-11-18T04:11:29.951Z,26.55
2017-11-18T04:12:36.037Z,19.10
2017-11-18T04:13:42.136Z,26.70
2017-11-18T04:14:47.769Z,23.20
2017-11-18T04:15:53.952Z,24.02
2017-11-18T04:17:00.208Z,24.12
2017-11-18T04:18:05.930Z,22.62
2017-11-18T04:19:12.040Z,19.12
2017-11-18T04:20:17.769Z,22.37
2017-11-18T04:21:23.523Z,20.25
2017-11-18T04:22:30.612Z,18.70
2017-11-18T04:23:36.734Z,22.05
2017-11-18T04:24:42.846Z,23.05
2017-11-18T04:25:49.111Z,18.92
2017-11-18T04:26:55.204Z,20.50
2017-11-18T04:28:01.353Z,20.35
2017-11-18T04:29:07.455Z,23.77
2017-11-18T04:30:13.519Z,24.60
2017-11-18T04:31:21.571Z,24.87
2017-11-18T04:32:27.366Z,20.45
2017-11-18T04:33:33.164Z,20.45
2017-11-18T04:34:39.860Z,18.48
2017-11-18T04:35:46.405Z,23.40
2017-11-18T04:36:52.610Z,22.27
2017-11-18T04:37:58.683Z,19.80
2017-11-18T04:39:04.080Z,23.95
2017-11-18T04:40:10.180Z,21.23
2017-11-18T04:41:16.247Z,18.37
2017-11-18T04:42:22.046Z,18.92
2017-11-18T04:43:28.412Z,20.90
2017-11-18T04:44:34.572Z,19.27
2017-11-18T04:45:40.684Z,19.42
2017-11-18T04:46:47.140Z,21.70
2017-11-18T04:47:53.244Z,20.30
2017-11-18T04:48:58.955Z,22.60
2017-11-18T04:50:11.061Z,22.30
2017-11-18T04:51:18.757Z,16.87
2017-11-18T04:52:24.937Z,19.58
2017-11-18T04:53:30.717Z,22.40
2017-11-18T04:54:36.975Z,21.92
2017-11-18T04:55:43.035Z,20.02
2017-11-18T04:56:49.496Z,22.85
2017-11-18T04:57:55.577Z,22.40
2017-11-18T04:59:01.317Z,19.52
2017-11-18T05:00:07.399Z,21.95
2017-11-18T05:01:13.022Z,17.15
2017-11-18T05:02:18.979Z,20.17
2017-11-18T05:03:25.138Z,21.27
2017-11-18T05:04:31.333Z,17.00
2017-11-18T05:05:37.130Z,21.95
2017-11-18T05:06:43.238Z,20.77
2017-11-18T05:07:52.230Z,20.50
2017-11-18T05:08:58.339Z,18.27
2017-11-18T05:10:04.090Z,19.30
2017-11-18T05:11:09.297Z,22.13
2017-11-18T05:12:15.469Z,18.73
2017-11-18T05:13:21.554Z,18.10
2017-11-18T05:14:27.470Z,18.83
2017-11-18T05:15:33.578Z,23.67
2017-11-18T05:16:39.808Z,17.65
2017-11-18T05:17:45.943Z,24.00
2017-11-18T05:18:53.992Z,20.75
2017-11-18T05:19:59.707Z,19.67
2017-11-18T05:21:05.414Z,18.58
2017-11-18T05:22:11.203Z,25.08
2017-11-18T05:23:16.961Z,17.87
2017-11-18T05:24:22.759Z,19.00
2017-11-18T05:25:28.890Z,24.42
2017-11-18T05:26:34.312Z,25.52
2017-11-18T05:27:40.181Z,19.17
2017-11-18T05:28:46.282Z,19.33
2017-11-18T05:29:52.369Z,22.27
2017-11-18T05:30:58.478Z,20.20
2017-11-18T05:32:03.924Z,18.92
2017-11-18T05:33:10.235Z,20.77
2017-11-18T05:34:16.515Z,20.33
2017-11-18T05:35:22.271Z,19.70
2017-11-18T05:36:27.661Z,20.12
2017-11-18T05:37:33.227Z,22.27
2017-11-18T05:38:38.672Z,19.83
2017-11-18T05:39:44.999Z,22.45
2017-11-18T05:40:50.760Z,19.60
2017-11-18T05:41:56.837Z,21.65
2017-11-18T05:43:02.959Z,23.35
2017-11-18T05:44:09.056Z,20.33
2017-11-18T05:45:15.165Z,21.30
2017-11-18T05:46:21.255Z,22.83
2017-11-18T05:47:27.372Z,22.70
2017-11-18T05:48:33.496Z,20.98
2017-11-18T05:49:39.610Z,21.55
2017-11-18T05:50:45.717Z,20.37
2017-11-18T05:51:51.788Z,20.98
2017-11-18T05:52:57.935Z,23.65
2017-11-18T05:54:04.038Z,20.02
2017-11-18T05:55:10.133Z,22.85
2017-11-18T05:56:16.232Z,24.67
2017-11-18T05:57:22.376Z,20.67
2017-11-18T05:58:28.225Z,23.08
2017-11-18T05:59:34.354Z,23.98
2017-11-18T06:00:39.773Z,19.83
2017-11-18T06:01:51.026Z,26.15
2017-11-18T06:02:56.236Z,20.50
2017-11-18T06:04:02.406Z,21.20
2017-11-18T06:05:07.768Z,27.77
2017-11-18T06:06:14.389Z,22.05
2017-11-18T06:07:20.532Z,25.30
2017-11-18T06:08:26.640Z,25.15
2017-11-18T06:09:32.804Z,21.23
2017-11-18T06:10:38.897Z,21.58
2017-11-18T06:11:45.004Z,25.92
2017-11-18T06:12:51.148Z,24.83
2017-11-18T06:13:57.263Z,20.67
2017-11-18T06:15:08.084Z,24.45
2017-11-18T06:16:14.164Z,23.08
2017-11-18T06:17:19.944Z,23.12
2017-11-18T06:18:26.007Z,24.48
2017-11-18T06:19:32.110Z,26.05
2017-11-18T06:20:38.341Z,23.33
2017-11-18T06:21:44.422Z,26.25
2017-11-18T06:22:50.816Z,24.92
2017-11-18T06:23:56.908Z,28.83
2017-11-18T06:25:03.057Z,24.02
2017-11-18T06:26:09.195Z,28.35
2017-11-18T06:27:15.309Z,28.60
2017-11-18T06:28:21.776Z,25.58
2017-11-18T06:29:27.913Z,27.37
2017-11-18T06:30:33.997Z,24.33
2017-11-18T06:31:40.123Z,26.15
2017-11-18T06:32:46.250Z,29.30
2017-11-18T06:33:52.367Z,25.77
2017-11-18T06:34:58.611Z,23.33
2017-11-18T06:36:11.301Z,23.23
2017-11-18T06:37:17.426Z,22.77
2017-11-18T06:38:23.568Z,22.90
2017-11-18T06:39:29.678Z,23.30
2017-11-18T06:40:36.160Z,24.83
2017-11-18T06:41:42.258Z,24.77
2017-11-18T06:42:48.364Z,25.85
2017-11-18T06:43:54.491Z,22.02
2017-11-18T06:45:00.573Z,25.73
2017-11-18T06:46:06.746Z,22.17
2017-11-18T06:47:13.020Z,24.23
2017-11-18T06:48:19.099Z,25.73
2017-11-18T06:49:25.210Z,22.45
2017-11-18T06:50:34.281Z,26.33
2017-11-18T06:51:40.408Z,24.60
2017-11-18T06:52:46.573Z,26.98
2017-11-18T06:53:52.752Z,25.48
2017-11-18T06:54:58.867Z,24.95
2017-11-18T06:56:05.028Z,24.40
2017-11-18T06:57:11.404Z,28.50
2017-11-18T06:58:17.515Z,26.12
2017-11-18T06:59:23.647Z,24.75
2017-11-18T07:00:29.813Z,24.42
2017-11-18T07:01:35.954Z,22.50
2017-11-18T07:02:42.068Z,25.42
2017-11-18T07:03:48.151Z,28.08
2017-11-18T07:04:54.506Z,23.30
2017-11-18T07:06:00.623Z,23.33
2017-11-18T07:07:06.707Z,27.25
2017-11-18T07:08:13.113Z,25.35
2017-11-18T07:09:19.297Z,24.77
2017-11-18T07:10:25.495Z,25.90
2017-11-18T07:11:31.698Z,23.30
2017-11-18T07:12:37.820Z,27.83
2017-11-18T07:13:44.008Z,22.48
2017-11-18T07:14:50.325Z,29.48
2017-11-18T07:15:55.865Z,23.00
2017-11-18T07:17:02.351Z,20.88
2017-11-18T07:18:08.447Z,26.15
2017-11-18T07:19:14.170Z,24.70
2017-11-18T07:20:20.239Z,24.02
2017-11-18T07:21:26.304Z,23.23
2017-11-18T07:22:32.464Z,28.27
2017-11-18T07:23:38.651Z,26.48
2017-11-18T07:24:44.780Z,23.62
2017-11-18T07:25:50.933Z,26.08
2017-11-18T07:26:57.018Z,25.65
2017-11-18T07:28:03.141Z,25.05
2017-11-18T07:29:09.249Z,25.12
2017-11-18T07:30:15.313Z,22.52
2017-11-18T07:31:21.467Z,25.58
2017-11-18T07:32:27.565Z,24.63
2017-11-18T07:33:33.652Z,25.00
2017-11-18T07:34:39.815Z,23.50
2017-11-18T07:35:45.927Z,30.17
2017-11-18T07:36:52.018Z,23.00
2017-11-18T07:37:58.137Z,26.05
2017-11-18T07:39:03.557Z,27.98
2017-11-18T07:40:09.653Z,24.40
2017-11-18T07:41:15.789Z,27.40
2017-11-18T07:42:21.933Z,27.20
2017-11-18T07:43:28.038Z,26.92
2017-11-18T07:44:34.161Z,27.83
2017-11-18T07:45:40.272Z,25.60
2017-11-18T07:46:46.385Z,26.60
2017-11-18T07:47:52.842Z,22.85
2017-11-18T07:49:03.804Z,25.65
2017-11-18T07:50:09.595Z,28.45
2017-11-18T07:51:15.717Z,22.00
2017-11-18T07:52:22.280Z,22.37
2017-11-18T07:53:28.457Z,22.05
2017-11-18T07:54:35.241Z,26.70
2017-11-18T07:55:42.325Z,25.80
2017-11-18T07:56:50.461Z,27.25
2017-11-18T07:57:58.215Z,27.48
2017-11-18T07:59:04.357Z,25.98
2017-11-18T08:00:10.464Z,24.92
2017-11-18T08:01:16.846Z,26.52
2017-11-18T08:02:23.001Z,26.45
2017-11-18T08:03:30.438Z,21.48
2017-11-18T08:04:36.612Z,26.35
2017-11-18T08:05:42.799Z,21.67
2017-11-18T08:06:48.546Z,24.25
2017-11-18T08:07:54.864Z,22.17
2017-11-18T08:09:00.985Z,27.10
2017-11-18T08:10:07.176Z,29.33
2017-11-18T08:11:13.437Z,23.00
2017-11-18T08:12:19.628Z,23.55
2017-11-18T08:13:25.786Z,28.02
2017-11-18T08:14:31.947Z,25.92
2017-11-18T08:15:38.074Z,25.37
2017-11-18T08:16:44.165Z,23.00
2017-11-18T08:17:50.298Z,23.70
2017-11-18T08:18:56.425Z,25.00
2017-11-18T08:20:02.575Z,22.40
2017-11-18T08:21:09.024Z,27.00
2017-11-18T08:22:15.221Z,19.80
2017-11-18T08:23:22.509Z,23.77
2017-11-18T08:24:28.912Z,26.27
2017-11-18T08:25:35.087Z,21.27
2017-11-18T08:26:41.216Z,23.92
2017-11-18T08:27:47.395Z,24.87
2017-11-18T08:28:53.513Z,21.85
2017-11-18T08:29:59.573Z,23.42
2017-11-18T08:31:05.720Z,26.30
2017-11-18T08:32:11.807Z,27.17
2017-11-18T08:33:18.091Z,22.42
2017-11-18T08:34:24.204Z,27.42
2017-11-18T08:35:30.606Z,21.10
2017-11-18T08:36:37.236Z,20.60
2017-11-18T08:37:43.119Z,25.67
2017-11-18T08:38:49.285Z,24.45
2017-11-18T08:39:55.453Z,22.80
2017-11-18T08:41:01.544Z,21.80
2017-11-18T08:42:07.656Z,23.15
2017-11-18T08:43:14.152Z,22.75
2017-11-18T08:44:20.455Z,23.90
2017-11-18T08:45:26.603Z,24.50
2017-11-18T08:46:32.740Z,19.85
2017-11-18T08:47:38.862Z,21.70
2017-11-18T08:48:44.940Z,22.55
2017-11-18T08:49:51.062Z,23.62
2017-11-18T08:50:57.168Z,23.90
2017-11-18T08:52:03.264Z,22.25
2017-11-18T08:53:09.405Z,21.95
2017-11-18T08:54:15.486Z,23.87
2017-11-18T08:55:21.198Z,23.40
2017-11-18T08:56:26.893Z,21.85
2017-11-18T08:57:33.030Z,23.90
2017-11-18T08:58:39.197Z,20.92
2017-11-18T08:59:44.635Z,22.65
2017-11-18T09:00:50.046Z,24.63
2017-11-18T09:01:55.987Z,22.30
2017-11-18T09:03:01.511Z,21.00
2017-11-18T09:04:07.659Z,22.35
2017-11-18T09:05:13.588Z,25.55
2017-11-18T09:06:19.392Z,23.58
2017-11-18T09:07:25.481Z,21.10
2017-11-18T09:08:31.247Z,23.05
2017-11-18T09:09:37.400Z,23.15
2017-11-18T09:10:43.548Z,21.55
2017-11-18T09:11:49.690Z,21.00
2017-11-18T09:12:55.873Z,22.58
2017-11-18T09:14:01.957Z,24.90
2017-11-18T09:15:08.059Z,21.10
2017-11-18T09:16:14.162Z,19.77
2017-11-18T09:17:21.209Z,24.00
2017-11-18T09:18:27.373Z,20.90
2017-11-18T09:19:33.514Z,17.60
2017-11-18T09:20:39.409Z,18.95
2017-11-18T09:21:45.520Z,23.77
2017-11-18T09:22:51.639Z,18.02
2017-11-18T09:23:57.948Z,16.73
2017-11-18T09:25:04.078Z,20.15
2017-11-18T09:26:10.193Z,22.17
2017-11-18T09:27:16.307Z,19.02
2017-11-18T09:28:29.489Z,17.65
2017-11-18T09:29:35.872Z,19.77
2017-11-18T09:30:41.965Z,18.48
2017-11-18T09:31:48.046Z,23.00
2017-11-18T09:32:54.167Z,19.40
2017-11-18T09:34:03.168Z,19.10
2017-11-18T09:35:08.974Z,15.23
2017-11-18T09:36:15.388Z,17.20
2017-11-18T09:37:21.570Z,18.87
2017-11-18T09:38:27.756Z,16.48
2017-11-18T09:39:33.868Z,16.17
2017-11-18T09:40:40.040Z,19.62
2017-11-18T09:41:46.200Z,17.70
2017-11-18T09:42:52.361Z,19.87
2017-11-18T09:43:58.452Z,15.90
2017-11-18T09:45:04.213Z,20.40
2017-11-18T09:46:10.332Z,18.98
2017-11-18T09:47:16.496Z,19.90
2017-11-18T09:48:22.902Z,23.40
2017-11-18T09:49:30.090Z,17.37
2017-11-18T09:50:36.302Z,19.23
2017-11-18T09:51:42.422Z,15.70
2017-11-18T09:52:48.532Z,17.20
2017-11-18T09:53:54.728Z,14.20
2017-11-18T09:55:00.840Z,16.02
2017-11-18T09:56:06.947Z,20.20
2017-11-18T09:57:13.146Z,18.35
2017-11-18T09:58:24.281Z,18.37
2017-11-18T09:59:30.584Z,19.08
2017-11-18T10:00:36.706Z,17.70
2017-11-18T10:01:49.585Z,15.60
2017-11-18T10:02:55.715Z,15.18
2017-11-18T10:04:01.325Z,14.38
2017-11-18T10:05:06.886Z,15.20
2017-11-18T10:06:12.389Z,15.20
2017-11-18T10:07:17.874Z,17.33
2017-11-18T10:08:24.073Z,18.92
2017-11-18T10:09:29.906Z,17.37
2017-11-18T10:10:36.077Z,19.17
2017-11-18T10:11:42.248Z,17.73
2017-11-18T10:12:48.424Z,17.25
2017-11-18T10:13:54.615Z,20.70
2017-11-18T10:15:04.956Z,22.45
2017-11-18T10:16:11.400Z,17.00
2017-11-18T10:17:17.706Z,15.85
2017-11-18T10:18:23.971Z,15.73
2017-11-18T10:19:30.434Z,13.45
2017-11-18T10:20:36.631Z,14.77
2017-11-18T10:21:42.776Z,17.08
2017-11-18T10:22:48.948Z,14.20
2017-11-18T10:23:55.174Z,13.20
2017-11-18T10:25:01.408Z,14.57
2017-11-18T10:26:07.564Z,15.52
2017-11-18T10:27:13.961Z,14.57
2017-11-18T10:28:20.128Z,15.80
2017-11-18T10:29:32.171Z,13.23
2017-11-18T10:30:38.338Z,19.40
2017-11-18T10:31:44.143Z,19.27
2017-11-18T10:32:50.340Z,15.02
2017-11-18T10:33:56.527Z,15.38
2017-11-18T10:35:02.678Z,14.43
2017-11-18T10:36:08.885Z,12.68
2017-11-18T10:37:15.046Z,14.70
2017-11-18T10:38:21.562Z,15.48
2017-11-18T10:39:27.687Z,10.60
2017-11-18T10:40:33.833Z,11.57
2017-11-18T10:41:40.017Z,15.82
2017-11-18T10:42:46.200Z,9.52
2017-11-18T10:43:52.322Z,10.95
2017-11-18T10:44:58.139Z,13.43
2017-11-18T10:46:03.947Z,13.52
2017-11-18T10:47:10.906Z,10.20
2017-11-18T10:48:17.322Z,10.57
2017-11-18T10:49:23.461Z,11.48
2017-11-18T10:50:29.636Z,10.90
2017-11-18T10:51:35.779Z,10.98
2017-11-18T10:52:41.888Z,10.60
2017-11-18T10:53:48.076Z,14.57
2017-11-18T10:54:54.217Z,10.75
2017-11-18T10:56:00.027Z,11.95
2017-11-18T10:57:06.136Z,10.75
2017-11-18T10:58:12.425Z,12.15
2017-11-18T10:59:18.601Z,13.45
2017-11-18T11:00:24.069Z,11.27
2017-11-18T11:01:30.024Z,14.85
2017-11-18T11:02:36.231Z,12.85
2017-11-18T11:03:42.407Z,12.75
2017-11-18T11:04:48.576Z,10.57
2017-11-18T11:05:54.071Z,12.35
2017-11-18T11:07:00.127Z,13.82
2017-11-18T11:08:05.993Z,12.25
2017-11-18T11:09:12.153Z,12.50
2017-11-18T11:10:18.284Z,11.95
2017-11-18T11:11:24.459Z,15.77
2017-11-18T11:12:30.301Z,11.75
2017-11-18T11:13:36.304Z,16.25
2017-11-18T11:14:42.504Z,12.80
2017-11-18T11:15:48.659Z,12.27
2017-11-18T11:16:55.310Z,15.10
2017-11-18T11:18:01.171Z,13.48
2017-11-18T11:19:07.334Z,13.23
2017-11-18T11:20:13.186Z,11.85
2017-11-18T11:21:19.388Z,11.82
2017-11-18T11:23:36.766Z,16.10
2017-11-18T11:24:43.131Z,13.68
2017-11-18T11:25:49.289Z,11.75
2017-11-18T11:26:55.447Z,12.60
2017-11-18T11:28:01.601Z,10.55
2017-11-18T11:29:07.741Z,12.90
2017-11-18T11:30:13.244Z,13.35
2017-11-18T11:31:19.191Z,11.50
2017-11-18T11:32:25.019Z,10.90
2017-11-18T11:33:30.836Z,11.25
2017-11-18T11:34:37.033Z,12.20
2017-11-18T11:35:43.225Z,11.80
2017-11-18T11:36:49.073Z,11.15
2017-11-18T11:37:55.272Z,13.90
2017-11-18T11:39:01.452Z,14.82
2017-11-18T11:40:07.673Z,14.23
2017-11-18T11:41:13.894Z,13.88
2017-11-18T11:42:20.132Z,18.83
2017-11-18T11:43:26.368Z,13.45
2017-11-18T11:44:38.589Z,11.80
2017-11-18T11:45:44.188Z,16.27
2017-11-18T11:46:49.878Z,15.13
2017-11-18T11:47:55.766Z,11.32
2017-11-18T11:49:01.955Z,12.45
2017-11-18T11:50:07.776Z,11.90
2017-11-18T11:51:13.773Z,12.98
2017-11-18T11:52:19.934Z,11.77
2017-11-18T11:53:26.088Z,12.15
2017-11-18T11:54:32.071Z,9.73
2017-11-18T11:55:38.046Z,11.50
2017-11-18T11:56:44.173Z,9.07
2017-11-18T11:57:50.373Z,11.38
2017-11-18T11:58:56.525Z,9.63
2017-11-18T12:00:02.325Z,9.15
2017-11-18T12:01:08.471Z,9.45
2017-11-18T12:02:14.340Z,11.77
2017-11-18T12:03:19.854Z,11.30
2017-11-18T12:04:26.072Z,8.02
2017-11-18T12:05:31.837Z,9.25
2017-11-18T12:06:37.616Z,9.30
2017-11-18T12:07:43.795Z,10.02
2017-11-18T12:08:49.967Z,11.40
2017-11-18T12:09:55.804Z,8.93
2017-11-18T12:11:01.969Z,9.85
2017-11-18T12:12:08.156Z,12.37
2017-11-18T12:13:14.401Z,10.32
2017-11-18T12:14:20.207Z,11.30
2017-11-18T12:15:26.366Z,10.65
2017-11-18T12:16:32.222Z,10.90
2017-11-18T12:17:38.395Z,11.73
2017-11-18T12:18:44.578Z,11.77
2017-11-18T12:19:50.703Z,9.60
2017-11-18T12:20:56.155Z,8.52
2017-11-18T12:22:02.209Z,8.90
2017-11-18T12:23:07.831Z,10.23
2017-11-18T12:24:13.999Z,7.75
2017-11-18T12:25:19.816Z,8.27
2017-11-18T12:26:25.820Z,8.52
2017-11-18T12:27:31.673Z,11.27
2017-11-18T12:28:37.863Z,8.82
2017-11-18T12:29:43.995Z,8.20
2017-11-18T12:30:49.947Z,10.65
2017-11-18T12:31:56.115Z,9.13
2017-11-18T12:33:02.300Z,7.90
2017-11-18T12:34:08.431Z,8.70
2017-11-18T12:35:14.345Z,8.65
2017-11-18T12:36:20.500Z,10.43
2017-11-18T12:37:26.361Z,10.88
2017-11-18T12:38:32.350Z,10.45
2017-11-18T12:39:38.584Z,7.62
2017-11-18T12:40:44.488Z,7.97
2017-11-18T12:41:50.638Z,8.45
2017-11-18T12:42:56.897Z,7.57
2017-11-18T12:44:03.368Z,9.00
2017-11-18T12:45:09.125Z,11.15
2017-11-18T12:46:17.370Z,7.65
2017-11-18T12:47:23.331Z,10.15
2017-11-18T12:48:29.567Z,10.52
2017-11-18T12:49:35.360Z,10.30
2017-11-18T12:50:41.542Z,7.97
2017-11-18T12:51:47.697Z,7.68
2017-11-18T12:52:53.834Z,10.45
2017-11-18T12:53:59.965Z,8.57
2017-11-18T12:55:06.104Z,7.75
2017-11-18T12:56:12.263Z,9.35
2017-11-18T12:57:18.410Z,9.25
2017-11-18T12:58:24.226Z,7.35
2017-11-18T12:59:30.356Z,8.05
2017-11-18T13:00:35.849Z,7.87
2017-11-18T13:01:41.842Z,8.32
2017-11-18T13:02:47.995Z,9.75
2017-11-18T13:03:54.144Z,8.18
2017-11-18T13:05:00.301Z,8.30
2017-11-18T13:06:06.123Z,7.00
2017-11-18T13:07:12.336Z,7.90
2017-11-18T13:08:17.829Z,7.30
2017-11-18T13:09:24.169Z,7.72
2017-11-18T13:10:30.145Z,7.60
2017-11-18T13:11:36.299Z,9.88
2017-11-18T13:12:42.440Z,7.45
2017-11-18T13:13:48.697Z,7.50
2017-11-18T13:14:54.880Z,9.48
2017-11-18T13:16:01.016Z,7.57
2017-11-18T13:17:07.175Z,7.22
2017-11-18T13:18:13.371Z,8.80
2017-11-18T13:19:19.582Z,8.05
2017-11-18T13:20:25.747Z,10.88
2017-11-18T13:21:31.936Z,7.40
2017-11-18T13:22:38.057Z,8.45
2017-11-18T13:23:44.009Z,7.87
2017-11-18T13:24:50.157Z,9.30
2017-11-18T13:25:56.335Z,7.43
2017-11-18T13:27:02.315Z,8.63
2017-11-18T13:28:08.462Z,9.30
2017-11-18T13:29:14.616Z,8.85
2017-11-18T13:30:21.915Z,7.65
2017-11-18T13:31:28.098Z,8.40
2017-11-18T13:32:33.868Z,9.18
2017-11-18T13:33:40.009Z,7.75
2017-11-18T13:34:45.865Z,7.90
2017-11-18T13:35:51.659Z,7.72
2017-11-18T13:36:57.419Z,7.93
2017-11-18T13:38:03.591Z,8.15
2017-11-18T13:39:10.254Z,7.85
2017-11-18T13:40:16.038Z,12.00
2017-11-18T13:41:22.858Z,8.38
2017-11-18T13:42:28.995Z,7.20
2017-11-18T13:43:35.169Z,7.72
2017-11-18T13:44:41.288Z,7.00
2017-11-18T13:45:47.151Z,9.88
2017-11-18T13:46:53.289Z,7.15
2017-11-18T13:47:59.418Z,8.18
2017-11-18T13:49:04.891Z,7.60
2017-11-18T13:50:11.367Z,7.82
2017-11-18T13:51:17.516Z,8.63
2017-11-18T13:52:23.652Z,10.45
2017-11-18T13:53:29.787Z,7.80
2017-11-18T13:54:35.960Z,8.95
2017-11-18T13:55:42.123Z,6.80
2017-11-18T13:56:48.244Z,7.55
2017-11-18T13:57:54.389Z,5.85
2017-11-18T13:59:00.548Z,7.32
2017-11-18T14:00:06.715Z,7.25
2017-11-18T14:01:12.357Z,7.10
2017-11-18T14:02:18.510Z,8.07
2017-11-18T14:03:24.277Z,9.05
2017-11-18T14:04:30.389Z,9.13
2017-11-18T14:05:35.942Z,7.57
2017-11-18T14:06:41.748Z,9.27
2017-11-18T14:07:47.916Z,7.95
2017-11-18T14:08:54.070Z,9.48
2017-11-18T14:10:00.227Z,7.60
2017-11-18T14:11:06.398Z,8.45
2017-11-18T14:12:12.574Z,8.27
2017-11-18T14:13:18.761Z,8.93
2017-11-18T14:14:24.229Z,8.00
2017-11-18T14:15:30.384Z,7.72
2017-11-18T14:16:36.357Z,8.75
2017-11-18T14:17:42.157Z,8.75
2017-11-18T14:18:48.330Z,7.30
2017-11-18T14:19:54.500Z,8.98